sensor_id;sensor_type;location;lat;lon;timestamp;temperature;humidity
13470;DHT22;6807;48.682;9.032;2022-10-29T00:00:56;12.20;99.90
13470;DHT22;6807;48.682;9.032;2022-10-29T00:03:23;12.20;99.90
13470;DHT22;6807;48.682;9.032;2022-10-29T00:05:55;12.20;99.90
13470;DHT22;6807;48.682;9.032;2022-10-29T00:08:22;12.20;99.90
13470;DHT22;6807;48.682;9.032;2022-10-29T00:10:50;12.10;99.90
13470;DHT22;6807;48.682;9.032;2022-10-29T00:13:17;12.10;99.90
13470;DHT22;6807;48.682;9.032;2022-10-29T00:15:44;11.90;99.90
13470;DHT22;6807;48.682;9.032;2022-10-29T00:18:10;11.90;99.90
13470;DHT22;6807;48.682;9.032;2022-10-29T00:20:37;11.70;99.90
13470;DHT22;6807;48.682;9.032;2022-10-29T00:23:04;11.70;99.90
13470;DHT22;6807;48.682;9.032;2022-10-29T00:25:31;11.60;99.90
13470;DHT22;6807;48.682;9.032;2022-10-29T00:27:59;11.50;99.90
13470;DHT22;6807;48.682;9.032;2022-10-29T00:30:26;11.40;99.90
13470;DHT22;6807;48.682;9.032;2022-10-29T00:32:53;11.40;99.90
13470;DHT22;6807;48.682;9.032;2022-10-29T00:35:19;11.30;99.90
13470;DHT22;6807;48.682;9.032;2022-10-29T00:37:46;11.50;99.90
13470;DHT22;6807;48.682;9.032;2022-10-29T00:40:13;11.20;99.90
13470;DHT22;6807;48.682;9.032;2022-10-29T00:42:40;11.20;99.90
13470;DHT22;6807;48.682;9.032;2022-10-29T00:45:20;11.80;99.90
13470;DHT22;6807;48.682;9.032;2022-10-29T00:47:51;11.30;99.90
13470;DHT22;6807;48.682;9.032;2022-10-29T00:50:21;11.20;99.90
13470;DHT22;6807;48.682;9.032;2022-10-29T00:52:49;11.20;99.90
13470;DHT22;6807;48.682;9.032;2022-10-29T00:55:17;11.20;99.90
13470;DHT22;6807;48.682;9.032;2022-10-29T00:57:47;11.30;99.90
13470;DHT22;6807;48.682;9.032;2022-10-29T01:00:16;11.30;99.90
13470;DHT22;6807;48.682;9.032;2022-10-29T01:02:44;11.30;99.90
13470;DHT22;6807;48.682;9.032;2022-10-29T01:05:12;11.40;99.90
13470;DHT22;6807;48.682;9.032;2022-10-29T01:07:40;11.50;99.90
13470;DHT22;6807;48.682;9.032;2022-10-29T01:10:09;11.50;99.90
13470;DHT22;6807;48.682;9.032;2022-10-29T01:12:57;11.50;99.90
13470;DHT22;6807;48.682;9.032;2022-10-29T01:15:33;11.60;99.90
13470;DHT22;6807;48.682;9.032;2022-10-29T01:18:12;11.60;99.90
13470;DHT22;6807;48.682;9.032;2022-10-29T01:21:12;11.70;99.90
13470;DHT22;6807;48.682;9.032;2022-10-29T01:24:26;11.80;99.90
13470;DHT22;6807;48.682;9.032;2022-10-29T01:30:07;11.90;99.90
13470;DHT22;6807;48.682;9.032;2022-10-29T01:32:48;11.90;99.90
13470;DHT22;6807;48.682;9.032;2022-10-29T01:35:29;11.90;99.90
13470;DHT22;6807;48.682;9.032;2022-10-29T01:38:06;11.90;99.90
13470;DHT22;6807;48.682;9.032;2022-10-29T01:40:40;12.00;99.90
13470;DHT22;6807;48.682;9.032;2022-10-29T01:43:15;12.00;99.90
13470;DHT22;6807;48.682;9.032;2022-10-29T01:45:48;12.00;99.90
13470;DHT22;6807;48.682;9.032;2022-10-29T01:48:20;12.10;99.90
13470;DHT22;6807;48.682;9.032;2022-10-29T01:50:53;12.10;99.90
13470;DHT22;6807;48.682;9.032;2022-10-29T01:53:23;12.10;99.90
13470;DHT22;6807;48.682;9.032;2022-10-29T01:55:50;12.10;99.90
13470;DHT22;6807;48.682;9.032;2022-10-29T01:58:18;12.10;99.90
13470;DHT22;6807;48.682;9.032;2022-10-29T02:00:52;12.00;99.90
13470;DHT22;6807;48.682;9.032;2022-10-29T02:03:34;12.10;99.90
13470;DHT22;6807;48.682;9.032;2022-10-29T02:06:08;12.10;99.90
13470;DHT22;6807;48.682;9.032;2022-10-29T02:08:43;12.00;99.90
13470;DHT22;6807;48.682;9.032;2022-10-29T02:11:18;12.00;99.90
13470;DHT22;6807;48.682;9.032;2022-10-29T02:13:50;12.00;99.90
13470;DHT22;6807;48.682;9.032;2022-10-29T02:16:19;12.10;99.90
13470;DHT22;6807;48.682;9.032;2022-10-29T02:18:48;12.10;99.90
13470;DHT22;6807;48.682;9.032;2022-10-29T02:21:16;12.20;99.90
13470;DHT22;6807;48.682;9.032;2022-10-29T02:23:44;12.40;99.90
13470;DHT22;6807;48.682;9.032;2022-10-29T02:26:12;12.50;99.90
13470;DHT22;6807;48.682;9.032;2022-10-29T02:28:39;12.50;99.90
13470;DHT22;6807;48.682;9.032;2022-10-29T02:31:06;12.50;99.90
13470;DHT22;6807;48.682;9.032;2022-10-29T02:33:32;12.50;99.90
13470;DHT22;6807;48.682;9.032;2022-10-29T02:36:01;12.50;99.90
13470;DHT22;6807;48.682;9.032;2022-10-29T02:38:27;12.50;99.90
13470;DHT22;6807;48.682;9.032;2022-10-29T02:40:54;12.50;99.90
13470;DHT22;6807;48.682;9.032;2022-10-29T02:43:22;12.60;99.90
13470;DHT22;6807;48.682;9.032;2022-10-29T02:45:49;12.60;99.90
13470;DHT22;6807;48.682;9.032;2022-10-29T02:48:22;12.70;99.90
13470;DHT22;6807;48.682;9.032;2022-10-29T02:50:49;12.70;99.90
13470;DHT22;6807;48.682;9.032;2022-10-29T02:53:17;12.80;99.90
13470;DHT22;6807;48.682;9.032;2022-10-29T02:55:44;12.90;99.90
13470;DHT22;6807;48.682;9.032;2022-10-29T02:58:37;13.70;99.90
13470;DHT22;6807;48.682;9.032;2022-10-29T03:01:04;13.00;99.90
13470;DHT22;6807;48.682;9.032;2022-10-29T03:03:31;13.00;99.90
13470;DHT22;6807;48.682;9.032;2022-10-29T03:05:58;12.90;99.90
13470;DHT22;6807;48.682;9.032;2022-10-29T03:08:26;12.90;99.90
13470;DHT22;6807;48.682;9.032;2022-10-29T03:10:53;12.90;99.90
13470;DHT22;6807;48.682;9.032;2022-10-29T03:13:20;12.90;99.90
13470;DHT22;6807;48.682;9.032;2022-10-29T03:15:59;12.90;99.90
13470;DHT22;6807;48.682;9.032;2022-10-29T03:18:26;12.80;99.90
13470;DHT22;6807;48.682;9.032;2022-10-29T03:20:53;12.80;99.90
13470;DHT22;6807;48.682;9.032;2022-10-29T03:23:19;12.70;99.90
13470;DHT22;6807;48.682;9.032;2022-10-29T03:25:50;12.60;99.90
13470;DHT22;6807;48.682;9.032;2022-10-29T03:28:18;12.60;99.90
13470;DHT22;6807;48.682;9.032;2022-10-29T03:30:44;12.50;99.90
13470;DHT22;6807;48.682;9.032;2022-10-29T03:33:18;12.50;99.90
13470;DHT22;6807;48.682;9.032;2022-10-29T03:35:45;12.50;99.90
13470;DHT22;6807;48.682;9.032;2022-10-29T03:38:12;12.50;99.90
13470;DHT22;6807;48.682;9.032;2022-10-29T03:40:39;12.50;99.90
13470;DHT22;6807;48.682;9.032;2022-10-29T03:43:07;12.50;99.90
13470;DHT22;6807;48.682;9.032;2022-10-29T03:45:34;12.50;99.90
13470;DHT22;6807;48.682;9.032;2022-10-29T03:48:03;12.50;99.90
13470;DHT22;6807;48.682;9.032;2022-10-29T03:50:30;12.50;99.90
13470;DHT22;6807;48.682;9.032;2022-10-29T03:52:59;12.40;99.90
13470;DHT22;6807;48.682;9.032;2022-10-29T03:55:26;12.30;99.90
13470;DHT22;6807;48.682;9.032;2022-10-29T03:57:53;12.30;99.90
13470;DHT22;6807;48.682;9.032;2022-10-29T04:00:21;12.30;99.90
13470;DHT22;6807;48.682;9.032;2022-10-29T04:03:21;12.30;99.90
13470;DHT22;6807;48.682;9.032;2022-10-29T04:06:09;12.40;99.90
13470;DHT22;6807;48.682;9.032;2022-10-29T04:08:37;12.60;99.90
13470;DHT22;6807;48.682;9.032;2022-10-29T04:11:04;12.60;99.90
13470;DHT22;6807;48.682;9.032;2022-10-29T04:13:32;12.50;99.90
13470;DHT22;6807;48.682;9.032;2022-10-29T04:16:01;12.50;99.90
13470;DHT22;6807;48.682;9.032;2022-10-29T04:18:28;12.50;99.90
13470;DHT22;6807;48.682;9.032;2022-10-29T04:20:58;12.50;99.90
13470;DHT22;6807;48.682;9.032;2022-10-29T04:23:25;12.30;99.90
13470;DHT22;6807;48.682;9.032;2022-10-29T04:25:55;12.90;99.90
13470;DHT22;6807;48.682;9.032;2022-10-29T04:28:23;12.10;99.90
13470;DHT22;6807;48.682;9.032;2022-10-29T04:30:50;12.10;99.90
13470;DHT22;6807;48.682;9.032;2022-10-29T04:33:18;12.00;99.90
13470;DHT22;6807;48.682;9.032;2022-10-29T04:35:50;12.10;99.90
13470;DHT22;6807;48.682;9.032;2022-10-29T04:38:19;12.20;99.90
13470;DHT22;6807;48.682;9.032;2022-10-29T04:40:46;12.10;99.90
13470;DHT22;6807;48.682;9.032;2022-10-29T04:43:13;12.10;99.90
13470;DHT22;6807;48.682;9.032;2022-10-29T04:45:41;12.00;99.90
13470;DHT22;6807;48.682;9.032;2022-10-29T04:53:13;11.90;99.90
13470;DHT22;6807;48.682;9.032;2022-10-29T04:55:40;11.70;99.90
13470;DHT22;6807;48.682;9.032;2022-10-29T05:01:25;11.60;99.90
13470;DHT22;6807;48.682;9.032;2022-10-29T05:03:51;11.70;99.90
13470;DHT22;6807;48.682;9.032;2022-10-29T05:06:19;11.60;99.90
13470;DHT22;6807;48.682;9.032;2022-10-29T05:08:56;11.60;99.90
13470;DHT22;6807;48.682;9.032;2022-10-29T05:11:40;11.50;99.90
13470;DHT22;6807;48.682;9.032;2022-10-29T05:14:07;11.30;99.90
13470;DHT22;6807;48.682;9.032;2022-10-29T05:16:33;11.30;99.90
13470;DHT22;6807;48.682;9.032;2022-10-29T05:19:00;11.40;99.90
13470;DHT22;6807;48.682;9.032;2022-10-29T05:21:28;11.20;99.90
13470;DHT22;6807;48.682;9.032;2022-10-29T05:23:57;11.10;99.90
13470;DHT22;6807;48.682;9.032;2022-10-29T05:26:39;11.10;99.90
13470;DHT22;6807;48.682;9.032;2022-10-29T05:29:17;11.20;99.90
13470;DHT22;6807;48.682;9.032;2022-10-29T05:31:51;11.30;99.90
13470;DHT22;6807;48.682;9.032;2022-10-29T05:34:18;11.10;99.90
13470;DHT22;6807;48.682;9.032;2022-10-29T05:36:53;11.60;99.90
13470;DHT22;6807;48.682;9.032;2022-10-29T05:39:21;11.00;99.90
13470;DHT22;6807;48.682;9.032;2022-10-29T05:41:51;10.90;99.90
13470;DHT22;6807;48.682;9.032;2022-10-29T05:44:18;10.90;99.90
13470;DHT22;6807;48.682;9.032;2022-10-29T05:46:58;10.80;99.90
13470;DHT22;6807;48.682;9.032;2022-10-29T05:49:39;10.90;99.90
13470;DHT22;6807;48.682;9.032;2022-10-29T05:52:06;10.80;99.90
13470;DHT22;6807;48.682;9.032;2022-10-29T05:54:38;12.30;99.90
13470;DHT22;6807;48.682;9.032;2022-10-29T05:57:12;9.90;99.90
13470;DHT22;6807;48.682;9.032;2022-10-29T05:59:46;10.70;99.90
13470;DHT22;6807;48.682;9.032;2022-10-29T06:05:33;10.60;99.90
13470;DHT22;6807;48.682;9.032;2022-10-29T06:08:15;11.70;99.90
13470;DHT22;6807;48.682;9.032;2022-10-29T06:11:09;10.50;99.90
13470;DHT22;6807;48.682;9.032;2022-10-29T06:13:37;9.80;99.90
13470;DHT22;6807;48.682;9.032;2022-10-29T06:16:07;10.50;99.90
13470;DHT22;6807;48.682;9.032;2022-10-29T06:18:34;11.70;99.90
13470;DHT22;6807;48.682;9.032;2022-10-29T06:21:04;11.70;99.90
13470;DHT22;6807;48.682;9.032;2022-10-29T06:23:35;10.60;99.90
13470;DHT22;6807;48.682;9.032;2022-10-29T06:26:15;10.70;99.90
13470;DHT22;6807;48.682;9.032;2022-10-29T06:28:48;10.80;99.90
13470;DHT22;6807;48.682;9.032;2022-10-29T06:31:15;10.30;99.90
13470;DHT22;6807;48.682;9.032;2022-10-29T06:33:59;12.40;99.90
13470;DHT22;6807;48.682;9.032;2022-10-29T06:36:26;11.00;99.90
13470;DHT22;6807;48.682;9.032;2022-10-29T06:38:55;12.80;99.90
13470;DHT22;6807;48.682;9.032;2022-10-29T06:41:24;12.80;99.90
13470;DHT22;6807;48.682;9.032;2022-10-29T06:43:56;11.60;99.90
13470;DHT22;6807;48.682;9.032;2022-10-29T06:46:24;11.40;99.90
13470;DHT22;6807;48.682;9.032;2022-10-29T06:48:51;12.90;99.90
13470;DHT22;6807;48.682;9.032;2022-10-29T06:51:18;11.50;99.90
13470;DHT22;6807;48.682;9.032;2022-10-29T06:53:45;12.10;99.90
13470;DHT22;6807;48.682;9.032;2022-10-29T06:56:12;11.80;99.90
13470;DHT22;6807;48.682;9.032;2022-10-29T06:58:41;11.80;99.90
13470;DHT22;6807;48.682;9.032;2022-10-29T07:01:08;11.90;99.90
13470;DHT22;6807;48.682;9.032;2022-10-29T07:03:35;12.00;99.90
13470;DHT22;6807;48.682;9.032;2022-10-29T07:06:02;12.20;99.90
13470;DHT22;6807;48.682;9.032;2022-10-29T07:08:29;12.30;99.90
13470;DHT22;6807;48.682;9.032;2022-10-29T07:10:58;12.60;99.90
13470;DHT22;6807;48.682;9.032;2022-10-29T07:13:27;12.50;99.90
13470;DHT22;6807;48.682;9.032;2022-10-29T07:15:55;13.30;99.90
13470;DHT22;6807;48.682;9.032;2022-10-29T07:18:22;13.20;99.90
13470;DHT22;6807;48.682;9.032;2022-10-29T07:20:49;12.90;99.90
13470;DHT22;6807;48.682;9.032;2022-10-29T07:23:16;13.10;99.90
13470;DHT22;6807;48.682;9.032;2022-10-29T07:25:43;13.30;99.90
13470;DHT22;6807;48.682;9.032;2022-10-29T07:28:15;13.30;99.90
13470;DHT22;6807;48.682;9.032;2022-10-29T07:30:42;13.30;99.90
13470;DHT22;6807;48.682;9.032;2022-10-29T07:33:11;13.40;99.90
13470;DHT22;6807;48.682;9.032;2022-10-29T07:35:38;13.50;99.90
13470;DHT22;6807;48.682;9.032;2022-10-29T07:38:05;13.60;99.90
13470;DHT22;6807;48.682;9.032;2022-10-29T07:40:33;13.90;99.90
13470;DHT22;6807;48.682;9.032;2022-10-29T07:43:00;14.00;99.90
13470;DHT22;6807;48.682;9.032;2022-10-29T07:45:27;14.60;99.90
13470;DHT22;6807;48.682;9.032;2022-10-29T07:48:00;14.60;99.90
13470;DHT22;6807;48.682;9.032;2022-10-29T07:50:30;14.80;99.90
13470;DHT22;6807;48.682;9.032;2022-10-29T07:52:58;14.90;99.90
13470;DHT22;6807;48.682;9.032;2022-10-29T07:55:25;15.30;99.90
13470;DHT22;6807;48.682;9.032;2022-10-29T07:57:55;15.50;99.90
13470;DHT22;6807;48.682;9.032;2022-10-29T08:00:23;15.60;99.90
13470;DHT22;6807;48.682;9.032;2022-10-29T08:02:51;15.80;99.90
13470;DHT22;6807;48.682;9.032;2022-10-29T08:05:18;16.20;99.90
13470;DHT22;6807;48.682;9.032;2022-10-29T08:07:46;16.30;99.90
13470;DHT22;6807;48.682;9.032;2022-10-29T08:10:13;16.90;99.90
13470;DHT22;6807;48.682;9.032;2022-10-29T08:12:47;17.30;99.90
13470;DHT22;6807;48.682;9.032;2022-10-29T08:15:15;18.80;99.90
13470;DHT22;6807;48.682;9.032;2022-10-29T08:17:42;20.10;99.90
13470;DHT22;6807;48.682;9.032;2022-10-29T08:20:09;20.20;1.00
13470;DHT22;6807;48.682;9.032;2022-10-29T08:22:37;20.30;1.00
13470;DHT22;6807;48.682;9.032;2022-10-29T08:25:06;20.30;99.90
13470;DHT22;6807;48.682;9.032;2022-10-29T08:27:33;21.60;99.90
13470;DHT22;6807;48.682;9.032;2022-10-29T08:30:00;22.90;1.00
13470;DHT22;6807;48.682;9.032;2022-10-29T08:32:27;24.10;1.00
13470;DHT22;6807;48.682;9.032;2022-10-29T08:34:53;24.20;1.00
13470;DHT22;6807;48.682;9.032;2022-10-29T08:37:20;24.70;1.00
13470;DHT22;6807;48.682;9.032;2022-10-29T08:39:47;25.90;1.00
13470;DHT22;6807;48.682;9.032;2022-10-29T08:42:27;25.90;1.00
13470;DHT22;6807;48.682;9.032;2022-10-29T08:45:13;26.50;1.00
13470;DHT22;6807;48.682;9.032;2022-10-29T08:48:09;26.70;1.00
13470;DHT22;6807;48.682;9.032;2022-10-29T08:50:43;27.50;99.90
13470;DHT22;6807;48.682;9.032;2022-10-29T08:53:16;26.80;99.90
13470;DHT22;6807;48.682;9.032;2022-10-29T08:55:45;28.30;99.90
13470;DHT22;6807;48.682;9.032;2022-10-29T08:58:22;28.50;99.90
13470;DHT22;6807;48.682;9.032;2022-10-29T09:00:55;28.80;1.00
13470;DHT22;6807;48.682;9.032;2022-10-29T09:03:23;29.90;1.00
13470;DHT22;6807;48.682;9.032;2022-10-29T09:05:59;29.40;99.90
13470;DHT22;6807;48.682;9.032;2022-10-29T09:08:37;29.00;99.90
13470;DHT22;6807;48.682;9.032;2022-10-29T09:11:15;29.30;99.90
13470;DHT22;6807;48.682;9.032;2022-10-29T09:13:57;29.00;99.90
13470;DHT22;6807;48.682;9.032;2022-10-29T09:16:38;28.40;99.90
13470;DHT22;6807;48.682;9.032;2022-10-29T09:19:25;28.60;99.90
13470;DHT22;6807;48.682;9.032;2022-10-29T09:21:58;28.50;99.90
13470;DHT22;6807;48.682;9.032;2022-10-29T09:24:32;28.50;99.90
13470;DHT22;6807;48.682;9.032;2022-10-29T09:27:07;28.20;99.90
13470;DHT22;6807;48.682;9.032;2022-10-29T09:29:55;28.00;99.90
13470;DHT22;6807;48.682;9.032;2022-10-29T09:32:30;28.30;99.90
13470;DHT22;6807;48.682;9.032;2022-10-29T09:35:01;28.30;99.90
13470;DHT22;6807;48.682;9.032;2022-10-29T09:37:41;28.30;99.90
13470;DHT22;6807;48.682;9.032;2022-10-29T09:40:16;28.30;99.90
13470;DHT22;6807;48.682;9.032;2022-10-29T09:42:45;28.90;99.90
13470;DHT22;6807;48.682;9.032;2022-10-29T09:45:16;30.30;99.90
13470;DHT22;6807;48.682;9.032;2022-10-29T09:47:52;29.80;99.90
13470;DHT22;6807;48.682;9.032;2022-10-29T09:50:28;30.30;99.90
13470;DHT22;6807;48.682;9.032;2022-10-29T09:52:57;30.00;99.90
13470;DHT22;6807;48.682;9.032;2022-10-29T09:55:26;30.80;99.90
13470;DHT22;6807;48.682;9.032;2022-10-29T09:57:55;31.30;99.90
13470;DHT22;6807;48.682;9.032;2022-10-29T10:00:26;31.70;99.90
13470;DHT22;6807;48.682;9.032;2022-10-29T10:02:57;31.00;99.90
13470;DHT22;6807;48.682;9.032;2022-10-29T10:05:28;30.70;99.90
13470;DHT22;6807;48.682;9.032;2022-10-29T10:08:06;30.70;99.90
13470;DHT22;6807;48.682;9.032;2022-10-29T10:10:35;30.90;99.90
13470;DHT22;6807;48.682;9.032;2022-10-29T10:13:05;30.60;99.90
13470;DHT22;6807;48.682;9.032;2022-10-29T10:15:35;31.30;99.90
13470;DHT22;6807;48.682;9.032;2022-10-29T10:18:04;31.90;99.90
13470;DHT22;6807;48.682;9.032;2022-10-29T10:20:34;32.10;99.90
13470;DHT22;6807;48.682;9.032;2022-10-29T10:23:23;32.30;99.90
13470;DHT22;6807;48.682;9.032;2022-10-29T10:25:51;32.80;99.90
13470;DHT22;6807;48.682;9.032;2022-10-29T10:28:20;32.50;99.90
13470;DHT22;6807;48.682;9.032;2022-10-29T10:31:09;31.50;99.90
13470;DHT22;6807;48.682;9.032;2022-10-29T10:33:43;32.10;99.90
13470;DHT22;6807;48.682;9.032;2022-10-29T10:36:14;31.90;99.90
13470;DHT22;6807;48.682;9.032;2022-10-29T10:38:43;31.60;99.90
13470;DHT22;6807;48.682;9.032;2022-10-29T10:41:11;31.50;99.90
13470;DHT22;6807;48.682;9.032;2022-10-29T10:43:41;32.50;99.90
13470;DHT22;6807;48.682;9.032;2022-10-29T10:46:15;32.20;99.90
13470;DHT22;6807;48.682;9.032;2022-10-29T10:48:58;31.70;99.90
13470;DHT22;6807;48.682;9.032;2022-10-29T10:51:28;30.80;99.90
13470;DHT22;6807;48.682;9.032;2022-10-29T10:53:56;30.70;99.90
13470;DHT22;6807;48.682;9.032;2022-10-29T10:56:23;30.50;99.90
13470;DHT22;6807;48.682;9.032;2022-10-29T10:58:57;30.80;99.90
13470;DHT22;6807;48.682;9.032;2022-10-29T11:01:30;31.30;99.90
13470;DHT22;6807;48.682;9.032;2022-10-29T11:04:08;32.10;99.90
13470;DHT22;6807;48.682;9.032;2022-10-29T11:06:39;33.00;99.90
13470;DHT22;6807;48.682;9.032;2022-10-29T11:09:12;32.20;99.90
13470;DHT22;6807;48.682;9.032;2022-10-29T11:11:45;32.30;99.90
13470;DHT22;6807;48.682;9.032;2022-10-29T11:14:19;33.10;99.90
13470;DHT22;6807;48.682;9.032;2022-10-29T11:16:53;33.20;99.90
13470;DHT22;6807;48.682;9.032;2022-10-29T11:19:23;33.70;99.90
13470;DHT22;6807;48.682;9.032;2022-10-29T11:22:00;33.40;99.90
13470;DHT22;6807;48.682;9.032;2022-10-29T11:24:38;33.90;99.90
13470;DHT22;6807;48.682;9.032;2022-10-29T11:27:26;33.50;99.90
13470;DHT22;6807;48.682;9.032;2022-10-29T11:30:01;33.20;99.90
13470;DHT22;6807;48.682;9.032;2022-10-29T11:32:37;33.50;99.90
13470;DHT22;6807;48.682;9.032;2022-10-29T11:35:11;33.20;99.90
13470;DHT22;6807;48.682;9.032;2022-10-29T11:37:45;33.30;99.90
13470;DHT22;6807;48.682;9.032;2022-10-29T11:40:20;33.30;99.90
13470;DHT22;6807;48.682;9.032;2022-10-29T11:42:49;33.70;99.90
13470;DHT22;6807;48.682;9.032;2022-10-29T11:45:19;33.60;99.90
13470;DHT22;6807;48.682;9.032;2022-10-29T11:48:04;32.70;99.90
13470;DHT22;6807;48.682;9.032;2022-10-29T11:50:39;34.10;99.90
13470;DHT22;6807;48.682;9.032;2022-10-29T11:53:20;34.50;99.90
13470;DHT22;6807;48.682;9.032;2022-10-29T11:55:57;34.80;99.90
13470;DHT22;6807;48.682;9.032;2022-10-29T11:58:35;33.60;99.90
13470;DHT22;6807;48.682;9.032;2022-10-29T12:01:10;33.10;99.90
13470;DHT22;6807;48.682;9.032;2022-10-29T12:04:14;33.60;99.90
13470;DHT22;6807;48.682;9.032;2022-10-29T12:06:50;32.60;99.90
13470;DHT22;6807;48.682;9.032;2022-10-29T12:10:02;32.30;99.90
13470;DHT22;6807;48.682;9.032;2022-10-29T12:12:35;32.40;99.90
13470;DHT22;6807;48.682;9.032;2022-10-29T12:15:13;32.20;99.90
13470;DHT22;6807;48.682;9.032;2022-10-29T12:17:45;32.40;99.90
13470;DHT22;6807;48.682;9.032;2022-10-29T12:20:20;32.20;99.90
13470;DHT22;6807;48.682;9.032;2022-10-29T12:22:54;32.60;99.90
13470;DHT22;6807;48.682;9.032;2022-10-29T12:25:33;33.50;99.90
13470;DHT22;6807;48.682;9.032;2022-10-29T12:28:12;33.10;99.90
13470;DHT22;6807;48.682;9.032;2022-10-29T12:30:50;32.40;99.90
13470;DHT22;6807;48.682;9.032;2022-10-29T12:33:22;32.40;99.90
13470;DHT22;6807;48.682;9.032;2022-10-29T12:35:55;32.30;99.90
13470;DHT22;6807;48.682;9.032;2022-10-29T12:38:42;31.80;99.90
13470;DHT22;6807;48.682;9.032;2022-10-29T12:44:08;31.60;99.90
13470;DHT22;6807;48.682;9.032;2022-10-29T12:46:39;30.40;99.90
13470;DHT22;6807;48.682;9.032;2022-10-29T12:49:14;30.10;99.90
13470;DHT22;6807;48.682;9.032;2022-10-29T12:51:54;30.80;99.90
13470;DHT22;6807;48.682;9.032;2022-10-29T12:54:34;31.30;99.90
13470;DHT22;6807;48.682;9.032;2022-10-29T12:57:05;30.40;99.90
13470;DHT22;6807;48.682;9.032;2022-10-29T12:59:36;30.10;99.90
13470;DHT22;6807;48.682;9.032;2022-10-29T13:02:27;30.30;99.90
13470;DHT22;6807;48.682;9.032;2022-10-29T13:08:33;30.60;99.90
13470;DHT22;6807;48.682;9.032;2022-10-29T13:11:01;30.80;99.90
13470;DHT22;6807;48.682;9.032;2022-10-29T13:13:55;30.90;99.90
13470;DHT22;6807;48.682;9.032;2022-10-29T13:16:26;30.50;99.90
13470;DHT22;6807;48.682;9.032;2022-10-29T13:28:47;30.50;99.90
13470;DHT22;6807;48.682;9.032;2022-10-29T13:31:48;30.00;99.90
13470;DHT22;6807;48.682;9.032;2022-10-29T13:34:48;29.60;99.90
13470;DHT22;6807;48.682;9.032;2022-10-29T13:37:47;30.00;99.90
13470;DHT22;6807;48.682;9.032;2022-10-29T13:43:26;29.80;99.90
13470;DHT22;6807;48.682;9.032;2022-10-29T13:49:46;30.20;99.90
13470;DHT22;6807;48.682;9.032;2022-10-29T13:52:16;29.40;99.90
13470;DHT22;6807;48.682;9.032;2022-10-29T13:54:47;29.30;99.90
13470;DHT22;6807;48.682;9.032;2022-10-29T13:57:30;28.80;99.90
13470;DHT22;6807;48.682;9.032;2022-10-29T14:00:04;29.40;99.90
13470;DHT22;6807;48.682;9.032;2022-10-29T14:02:43;29.50;99.90
13470;DHT22;6807;48.682;9.032;2022-10-29T14:05:19;29.30;99.90
13470;DHT22;6807;48.682;9.032;2022-10-29T14:07:51;28.60;99.90
13470;DHT22;6807;48.682;9.032;2022-10-29T14:10:23;27.90;99.90
13470;DHT22;6807;48.682;9.032;2022-10-29T14:12:59;27.50;99.90
13470;DHT22;6807;48.682;9.032;2022-10-29T14:15:59;27.80;99.90
13470;DHT22;6807;48.682;9.032;2022-10-29T14:18:42;27.70;99.90
13470;DHT22;6807;48.682;9.032;2022-10-29T14:21:16;27.60;99.90
13470;DHT22;6807;48.682;9.032;2022-10-29T14:23:55;27.20;99.90
13470;DHT22;6807;48.682;9.032;2022-10-29T14:26:32;26.90;99.90
13470;DHT22;6807;48.682;9.032;2022-10-29T14:29:28;26.80;99.90
13470;DHT22;6807;48.682;9.032;2022-10-29T14:35:13;26.20;99.90
13470;DHT22;6807;48.682;9.032;2022-10-29T14:37:59;24.20;99.90
13470;DHT22;6807;48.682;9.032;2022-10-29T14:40:47;25.50;99.90
13470;DHT22;6807;48.682;9.032;2022-10-29T14:43:26;25.10;99.90
13470;DHT22;6807;48.682;9.032;2022-10-29T14:46:13;24.80;99.90
13470;DHT22;6807;48.682;9.032;2022-10-29T14:48:53;25.60;99.90
13470;DHT22;6807;48.682;9.032;2022-10-29T14:51:47;24.10;99.90
13470;DHT22;6807;48.682;9.032;2022-10-29T14:54:19;23.60;99.90
13470;DHT22;6807;48.682;9.032;2022-10-29T14:57:05;23.50;99.90
13470;DHT22;6807;48.682;9.032;2022-10-29T14:59:38;23.30;99.90
13470;DHT22;6807;48.682;9.032;2022-10-29T15:02:13;23.10;99.90
13470;DHT22;6807;48.682;9.032;2022-10-29T15:04:49;22.30;99.90
13470;DHT22;6807;48.682;9.032;2022-10-29T15:08:15;23.30;99.90
13470;DHT22;6807;48.682;9.032;2022-10-29T15:18:18;22.00;99.90
13470;DHT22;6807;48.682;9.032;2022-10-29T15:27:14;21.30;99.90
13470;DHT22;6807;48.682;9.032;2022-10-29T15:39:18;20.20;99.90
13470;DHT22;6807;48.682;9.032;2022-10-29T15:41:47;20.10;99.90
13470;DHT22;6807;48.682;9.032;2022-10-29T15:44:40;20.00;99.90
13470;DHT22;6807;48.682;9.032;2022-10-29T15:56:22;19.20;99.90
13470;DHT22;6807;48.682;9.032;2022-10-29T16:05:38;18.00;99.90
13470;DHT22;6807;48.682;9.032;2022-10-29T16:08:22;19.30;99.90
13470;DHT22;6807;48.682;9.032;2022-10-29T16:10:50;17.80;99.90
13470;DHT22;6807;48.682;9.032;2022-10-29T16:13:46;18.30;99.90
13470;DHT22;6807;48.682;9.032;2022-10-29T16:22:29;17.90;99.90
13470;DHT22;6807;48.682;9.032;2022-10-29T16:25:25;17.80;99.90
13470;DHT22;6807;48.682;9.032;2022-10-29T16:28:26;17.90;99.90
13470;DHT22;6807;48.682;9.032;2022-10-29T16:34:31;17.40;1.00
13470;DHT22;6807;48.682;9.032;2022-10-29T16:36:58;17.20;1.00
13470;DHT22;6807;48.682;9.032;2022-10-29T16:46:31;17.10;1.00
13470;DHT22;6807;48.682;9.032;2022-10-29T16:49:01;17.00;1.00
13470;DHT22;6807;48.682;9.032;2022-10-29T16:51:29;16.90;1.00
13470;DHT22;6807;48.682;9.032;2022-10-29T16:53:56;16.40;1.00
13470;DHT22;6807;48.682;9.032;2022-10-29T16:56:23;17.60;1.00
13470;DHT22;6807;48.682;9.032;2022-10-29T16:58:55;16.70;1.00
13470;DHT22;6807;48.682;9.032;2022-10-29T17:01:23;17.50;1.00
13470;DHT22;6807;48.682;9.032;2022-10-29T17:03:50;16.70;1.00
13470;DHT22;6807;48.682;9.032;2022-10-29T17:06:18;16.60;1.00
13470;DHT22;6807;48.682;9.032;2022-10-29T17:09:04;16.40;1.00
13470;DHT22;6807;48.682;9.032;2022-10-29T17:11:33;16.30;1.00
13470;DHT22;6807;48.682;9.032;2022-10-29T17:14:22;16.20;1.00
13470;DHT22;6807;48.682;9.032;2022-10-29T17:17:00;16.10;1.00
13470;DHT22;6807;48.682;9.032;2022-10-29T17:19:29;16.10;1.00
13470;DHT22;6807;48.682;9.032;2022-10-29T17:21:56;16.50;1.00
13470;DHT22;6807;48.682;9.032;2022-10-29T17:24:30;15.90;1.00
13470;DHT22;6807;48.682;9.032;2022-10-29T17:26:57;15.80;1.00
13470;DHT22;6807;48.682;9.032;2022-10-29T17:29:53;15.80;1.00
13470;DHT22;6807;48.682;9.032;2022-10-29T17:32:31;15.70;1.00
13470;DHT22;6807;48.682;9.032;2022-10-29T17:34:59;15.70;1.00
13470;DHT22;6807;48.682;9.032;2022-10-29T17:37:28;15.70;1.00
13470;DHT22;6807;48.682;9.032;2022-10-29T17:40:04;15.60;1.00
13470;DHT22;6807;48.682;9.032;2022-10-29T17:42:31;15.50;1.00
13470;DHT22;6807;48.682;9.032;2022-10-29T17:44:59;15.70;1.00
13470;DHT22;6807;48.682;9.032;2022-10-29T17:47:35;15.20;1.00
13470;DHT22;6807;48.682;9.032;2022-10-29T17:50:02;15.40;1.00
13470;DHT22;6807;48.682;9.032;2022-10-29T17:52:29;15.40;1.00
13470;DHT22;6807;48.682;9.032;2022-10-29T17:55:07;15.40;1.00
13470;DHT22;6807;48.682;9.032;2022-10-29T17:57:35;14.20;1.00
13470;DHT22;6807;48.682;9.032;2022-10-29T18:00:10;15.30;1.00
13470;DHT22;6807;48.682;9.032;2022-10-29T18:02:42;15.30;1.00